Iva, South Carolina
Current Conditions -  °F | °C
As of 10:56 PM on Tuesday 21 Oct 2014 (Local Time) from KAND Reporting Station
Clear Clear  
Wind Chill: 54°   Ceiling: Unl
Heat Index: 54°   Visibility: 10mi
Dew Point: 45°   Wind: 3mph
Humidity: 72%   Direction: 350°N
Pressure: 30"   Gusts: NA
Location:  34.31°N, 82.66°W
Report Text: KAND 220256Z AUTO 35003KT 10SM CLR 12/07 A3000 RMK AO2 SLPNO T01220072 53020
Loading
Personal Weather Stations






























Interactive Weather Map
Tropical Storm Tracking
New forecast layout! Learn more

10-Day Weather Forecast

Advertisements
Track Severe Weather on mobile